createdAt,value
2023-04-18T00:00:21.663Z,0.4846
2023-04-18T00:01:29.781Z,0.4873
2023-04-18T00:02:38.003Z,0.4979
2023-04-18T00:03:46.080Z,0.4864
2023-04-18T00:04:54.032Z,0.4779
2023-04-18T00:06:01.845Z,0.4938
2023-04-18T00:07:10.076Z,0.4907
2023-04-18T00:08:17.968Z,0.5014
2023-04-18T00:09:26.378Z,0.5066
2023-04-18T00:10:34.230Z,0.5021
2023-04-18T00:11:42.148Z,0.5103
2023-04-18T00:12:50.402Z,0.4944
2023-04-18T00:13:58.460Z,0.4868
2023-04-18T00:15:06.463Z,0.4849
2023-04-18T00:16:14.593Z,0.4943
2023-04-18T00:17:22.696Z,0.4899
2023-04-18T00:18:30.704Z,0.4818
2023-04-18T00:19:38.780Z,0.4867
2023-04-18T00:20:46.782Z,0.4838
2023-04-18T00:21:54.847Z,0.4878
2023-04-18T00:23:02.767Z,0.4937
2023-04-18T00:24:11.052Z,0.4984
2023-04-18T00:25:18.907Z,0.4846
2023-04-18T00:26:27.231Z,0.4825
2023-04-18T00:27:35.159Z,0.4829
2023-04-18T00:28:43.415Z,0.4909
2023-04-18T00:29:51.305Z,0.4972
2023-04-18T00:30:59.357Z,0.4930
2023-04-18T00:32:07.433Z,0.4973
2023-04-18T00:33:15.482Z,0.4828
2023-04-18T00:34:23.625Z,0.4897
2023-04-18T00:35:31.547Z,0.4886
2023-04-18T00:36:39.687Z,0.4942
2023-04-18T00:37:47.739Z,0.4909
2023-04-18T00:38:55.982Z,0.4856
2023-04-18T00:40:03.730Z,0.4792
2023-04-18T00:41:11.910Z,0.4774
2023-04-18T00:42:19.887Z,0.4923
2023-04-18T00:43:28.321Z,0.4780
2023-04-18T00:44:36.155Z,0.4707
2023-04-18T00:45:44.201Z,0.4839
2023-04-18T00:46:52.263Z,0.4924
2023-04-18T00:48:00.391Z,0.5091
2023-04-18T00:49:08.355Z,0.5131
2023-04-18T00:50:16.449Z,0.5013
2023-04-18T00:51:24.566Z,0.5198
2023-04-18T00:52:32.535Z,0.5088
2023-04-18T00:53:40.663Z,0.4696
2023-04-18T00:54:48.702Z,0.4853
2023-04-18T00:55:56.850Z,0.4801
2023-04-18T00:57:04.687Z,0.5082
2023-04-18T00:58:12.871Z,0.5067
2023-04-18T00:59:21.009Z,0.5014
2023-04-18T01:00:29.058Z,0.5146
2023-04-18T01:01:37.141Z,0.5095
2023-04-18T01:02:45.313Z,0.5154
2023-04-18T01:03:53.353Z,0.4754
2023-04-18T01:05:01.496Z,0.4873
2023-04-18T01:06:09.329Z,0.4894
2023-04-18T01:07:17.518Z,0.5063
2023-04-18T01:08:25.362Z,0.5007
2023-04-18T01:09:33.564Z,0.4861
2023-04-18T01:10:41.761Z,0.4915
2023-04-18T01:11:49.683Z,0.4856
2023-04-18T01:12:57.903Z,0.4913
2023-04-18T01:14:05.804Z,0.4885
2023-04-18T01:15:14.186Z,0.4717
2023-04-18T01:16:21.888Z,0.4862
2023-04-18T01:17:30.186Z,0.4886
2023-04-18T01:18:38.095Z,0.5142
2023-04-18T01:19:46.114Z,0.5256
2023-04-18T01:20:54.211Z,0.5058
2023-04-18T01:22:02.366Z,0.4869
2023-04-18T01:23:10.184Z,0.4904
2023-04-18T01:24:18.379Z,0.4905
2023-04-18T01:25:26.538Z,0.4925
2023-04-18T01:26:34.509Z,0.4912
2023-04-18T01:27:42.654Z,0.4802
2023-04-18T01:28:50.602Z,0.4972
2023-04-18T01:29:58.712Z,0.5054
2023-04-18T01:31:06.788Z,0.5097
2023-04-18T01:32:14.997Z,0.5269
2023-04-18T01:33:23.033Z,0.5165
2023-04-18T01:34:30.838Z,0.5190
2023-04-18T01:35:39.024Z,0.5235
2023-04-18T01:36:47.087Z,0.4940
2023-04-18T01:37:55.190Z,0.4951
2023-04-18T01:39:03.254Z,0.5108
2023-04-18T01:40:11.152Z,0.4989
2023-04-18T01:41:19.439Z,0.5083
2023-04-18T01:42:27.410Z,0.4960
2023-04-18T01:43:35.446Z,0.4616
2023-04-18T01:44:43.588Z,0.4614
2023-04-18T01:45:51.442Z,0.4689
2023-04-18T01:46:59.682Z,0.4813
2023-04-18T01:48:07.755Z,0.4894
2023-04-18T01:49:15.791Z,0.4983
2023-04-18T01:50:23.867Z,0.5038
2023-04-18T01:51:32.047Z,0.4914
2023-04-18T01:52:39.974Z,0.4958
2023-04-18T01:53:47.933Z,0.5070
2023-04-18T01:54:56.238Z,0.5165
2023-04-18T01:56:04.189Z,0.5041
2023-04-18T01:57:12.124Z,0.4912
2023-04-18T01:58:20.311Z,0.4891
2023-04-18T01:59:28.253Z,0.4975
2023-04-18T02:00:36.482Z,0.5046
2023-04-18T02:01:44.682Z,0.4980
2023-04-18T02:02:52.569Z,0.5038
2023-04-18T02:04:00.755Z,0.4790
2023-04-18T02:05:08.576Z,0.4937
2023-04-18T02:06:16.771Z,0.5088
2023-04-18T02:07:24.868Z,0.5098
2023-04-18T02:08:32.895Z,0.5076
2023-04-18T02:09:40.979Z,0.5184
2023-04-18T02:10:48.911Z,0.5118
2023-04-18T02:11:57.147Z,0.5056
2023-04-18T02:13:05.288Z,0.4960
2023-04-18T02:14:13.403Z,0.4935
2023-04-18T02:15:21.368Z,0.5004
2023-04-18T02:16:29.394Z,0.5070
2023-04-18T02:17:37.518Z,0.5077
2023-04-18T02:18:45.501Z,0.5143
2023-04-18T02:19:53.593Z,0.5175
2023-04-18T02:21:01.634Z,0.5161
2023-04-18T02:22:09.688Z,0.5044
2023-04-18T02:23:17.843Z,0.5087
2023-04-18T02:24:25.825Z,0.5061
2023-04-18T02:25:33.901Z,0.4952
2023-04-18T02:26:42.001Z,0.4912
2023-04-18T02:27:50.051Z,0.5052
2023-04-18T02:28:58.266Z,0.5016
2023-04-18T02:30:06.302Z,0.4864
2023-04-18T02:31:14.119Z,0.5045
2023-04-18T02:32:22.346Z,0.4996
2023-04-18T02:33:30.406Z,0.4670
2023-04-18T02:34:38.528Z,0.4858
2023-04-18T02:35:46.500Z,0.4801
2023-04-18T02:36:54.439Z,0.4924
2023-04-18T02:38:02.777Z,0.4747
2023-04-18T02:39:10.876Z,0.4777
2023-04-18T02:40:18.660Z,0.4911
2023-04-18T02:41:26.836Z,0.4989
2023-04-18T02:42:34.925Z,0.5027
2023-04-18T02:43:42.963Z,0.5152
2023-04-18T02:44:51.019Z,0.5221
2023-04-18T02:45:59.161Z,0.5280
2023-04-18T02:47:07.218Z,0.5177
2023-04-18T02:48:15.261Z,0.5104
2023-04-18T02:49:23.389Z,0.4945
2023-04-18T02:50:31.296Z,0.4934
2023-04-18T02:51:39.413Z,0.4891
2023-04-18T02:52:47.436Z,0.5191
2023-04-18T02:53:55.388Z,0.5138
2023-04-18T02:55:03.578Z,0.5131
2023-04-18T02:56:11.827Z,0.5103
2023-04-18T02:57:19.599Z,0.5070
2023-04-18T02:58:27.782Z,0.5257
2023-04-18T02:59:35.952Z,0.5323
2023-04-18T03:00:43.949Z,0.5301
2023-04-18T03:01:51.943Z,0.5069
2023-04-18T03:03:00.216Z,0.5120
2023-04-18T03:04:08.054Z,0.5099
2023-04-18T03:05:16.128Z,0.5066
2023-04-18T03:06:24.207Z,0.5037
2023-04-18T03:07:32.237Z,0.5085
2023-04-18T03:08:40.228Z,0.5181
2023-04-18T03:09:48.396Z,0.5091
2023-04-18T03:10:56.514Z,0.4896
2023-04-18T03:12:04.582Z,0.5294
2023-04-18T03:13:12.597Z,0.5402
2023-04-18T03:14:20.702Z,0.5219
2023-04-18T03:15:28.676Z,0.4880
2023-04-18T03:16:36.755Z,0.5076
2023-04-18T03:17:44.707Z,0.5219
2023-04-18T03:18:53.015Z,0.5078
2023-04-18T03:20:00.862Z,0.5117
2023-04-18T03:21:09.027Z,0.5124
2023-04-18T03:22:17.059Z,0.5301
2023-04-18T03:23:25.092Z,0.5315
2023-04-18T03:24:33.174Z,0.5168
2023-04-18T03:25:41.291Z,0.5115
2023-04-18T03:26:49.334Z,0.5011
2023-04-18T03:27:57.405Z,0.5103
2023-04-18T03:29:05.306Z,0.5388
2023-04-18T03:30:13.534Z,0.5322
2023-04-18T03:31:21.625Z,0.5168
2023-04-18T03:32:29.664Z,0.5076
2023-04-18T03:33:37.684Z,0.4928
2023-04-18T03:34:45.856Z,0.5067
2023-04-18T03:35:53.828Z,0.5135
2023-04-18T03:37:01.844Z,0.5262
2023-04-18T03:38:09.974Z,0.5191
2023-04-18T03:39:18.013Z,0.5167
2023-04-18T03:40:26.104Z,0.5313
2023-04-18T03:41:34.137Z,0.5311
2023-04-18T03:42:42.259Z,0.5132
2023-04-18T03:43:50.227Z,0.5260
2023-04-18T03:44:58.388Z,0.5399
2023-04-18T03:46:06.563Z,0.5266
2023-04-18T03:47:14.459Z,0.5099
2023-04-18T03:48:22.427Z,0.4986
2023-04-18T03:49:30.647Z,0.5098
2023-04-18T03:50:38.672Z,0.5318
2023-04-18T03:51:46.692Z,0.5544
2023-04-18T03:52:54.797Z,0.5222
2023-04-18T03:54:02.740Z,0.5370
2023-04-18T03:55:11.156Z,0.5331
2023-04-18T03:56:18.936Z,0.5371
2023-04-18T03:57:27.234Z,0.5299
2023-04-18T03:58:35.113Z,0.5299
2023-04-18T03:59:43.212Z,0.5344
2023-04-18T04:00:51.280Z,0.5326
2023-04-18T04:01:59.353Z,0.5235
2023-04-18T04:03:07.527Z,0.5202
2023-04-18T04:04:15.777Z,0.5628
2023-04-18T04:05:23.546Z,0.5530
2023-04-18T04:06:31.499Z,0.5522
2023-04-18T04:07:39.531Z,0.5674
2023-04-18T04:08:47.608Z,0.5278
2023-04-18T04:09:55.680Z,0.5095
2023-04-18T04:11:03.829Z,0.5192
2023-04-18T04:12:11.872Z,0.5102
2023-04-18T04:13:20.009Z,0.5114
2023-04-18T04:14:27.859Z,0.5071
2023-04-18T04:15:36.029Z,0.5247
2023-04-18T04:16:44.148Z,0.5204
2023-04-18T04:17:52.182Z,0.5125
2023-04-18T04:19:00.190Z,0.5102
2023-04-18T04:20:08.230Z,0.5186
2023-04-18T04:21:16.300Z,0.5283
2023-04-18T04:22:24.435Z,0.5405
2023-04-18T04:23:32.429Z,0.5494
2023-04-18T04:24:40.614Z,0.5199
2023-04-18T04:25:48.537Z,0.5066
2023-04-18T04:26:56.653Z,0.5161
2023-04-18T04:28:04.750Z,0.5319
2023-04-18T04:29:12.752Z,0.5210
2023-04-18T04:30:20.803Z,0.5093
2023-04-18T04:31:28.883Z,0.5219
2023-04-18T04:32:37.021Z,0.5426
2023-04-18T04:33:45.046Z,0.5386
2023-04-18T04:34:53.042Z,0.5527
2023-04-18T04:36:01.256Z,0.5228
2023-04-18T04:37:09.188Z,0.5084
2023-04-18T04:38:17.291Z,0.5405
2023-04-18T04:39:25.396Z,0.5346
2023-04-18T04:40:33.380Z,0.5419
2023-04-18T04:41:41.494Z,0.5482
2023-04-18T04:42:49.494Z,0.5329
2023-04-18T04:43:57.527Z,0.5247
2023-04-18T04:45:05.779Z,0.5337
2023-04-18T04:46:13.718Z,0.5172
2023-04-18T04:47:21.746Z,0.5281
2023-04-18T04:48:29.800Z,0.5184
2023-04-18T04:49:37.938Z,0.5284
2023-04-18T04:50:46.035Z,0.5308
2023-04-18T04:51:53.924Z,0.5495
2023-04-18T04:53:02.104Z,0.5352
2023-04-18T04:54:10.223Z,0.5451
2023-04-18T04:55:18.174Z,0.5525
2023-04-18T04:56:26.273Z,0.5268
2023-04-18T04:57:34.336Z,0.5365
2023-04-18T04:58:42.391Z,0.5343
2023-04-18T04:59:50.438Z,0.5333
2023-04-18T05:00:58.462Z,0.5306
2023-04-18T05:02:06.669Z,0.5273
2023-04-18T05:03:14.933Z,0.5267
2023-04-18T05:04:22.843Z,0.5194
2023-04-18T05:05:30.744Z,0.5282
2023-04-18T05:06:40.306Z,0.5606
2023-04-18T05:07:46.946Z,0.5674
2023-04-18T05:08:55.029Z,0.5459
2023-04-18T05:10:03.135Z,0.5502
2023-04-18T05:11:11.139Z,0.5437
2023-04-18T05:12:19.205Z,0.5446
2023-04-18T05:13:27.419Z,0.5401
2023-04-18T05:14:35.285Z,0.5383
2023-04-18T05:15:43.387Z,0.5186
2023-04-18T05:16:51.479Z,0.5152
2023-04-18T05:17:59.533Z,0.5131
2023-04-18T05:19:07.615Z,0.5129
2023-04-18T05:20:15.576Z,0.5092
2023-04-18T05:21:23.682Z,0.5144
2023-04-18T05:22:31.748Z,0.5103
2023-04-18T05:23:39.846Z,0.5201
2023-04-18T05:24:48.054Z,0.5495
2023-04-18T05:25:56.176Z,0.5324
2023-04-18T05:27:04.021Z,0.5456
2023-04-18T05:28:12.069Z,0.5366
2023-04-18T05:29:20.123Z,0.5122
2023-04-18T05:30:28.208Z,0.5249
2023-04-18T05:31:36.313Z,0.5368
2023-04-18T05:32:44.366Z,0.5296
2023-04-18T05:33:52.483Z,0.5169
2023-04-18T05:35:00.492Z,0.5084
2023-04-18T05:36:08.535Z,0.5111
2023-04-18T05:37:16.566Z,0.5275
2023-04-18T05:38:24.629Z,0.5170
2023-04-18T05:39:32.702Z,0.5414
2023-04-18T05:40:40.762Z,0.5353
2023-04-18T05:41:48.849Z,0.5083
2023-04-18T05:42:56.892Z,0.5284
2023-04-18T05:44:05.929Z,0.5323
2023-04-18T05:45:13.013Z,0.5360
2023-04-18T05:46:21.077Z,0.5302
2023-04-18T05:47:29.228Z,0.5178
2023-04-18T05:48:37.226Z,0.5333
2023-04-18T05:49:45.229Z,0.5188
2023-04-18T05:50:53.332Z,0.5171
2023-04-18T05:52:01.384Z,0.5323
2023-04-18T05:53:09.532Z,0.5300
2023-04-18T05:54:17.606Z,0.5488
2023-04-18T05:55:25.546Z,0.5489
2023-04-18T05:56:33.679Z,0.5182
2023-04-18T05:57:41.776Z,0.5267
2023-04-18T05:58:49.820Z,0.5263
2023-04-18T05:59:57.868Z,0.5300
2023-04-18T06:01:05.848Z,0.5403
2023-04-18T06:02:14.039Z,0.5219
2023-04-18T06:03:22.280Z,0.5466
2023-04-18T06:04:30.412Z,0.5546
2023-04-18T06:05:38.356Z,0.5362
2023-04-18T06:06:46.248Z,0.5269
2023-04-18T06:07:54.305Z,0.5500
2023-04-18T06:09:02.444Z,0.5518
2023-04-18T06:10:10.459Z,0.5516
2023-04-18T06:11:18.424Z,0.5254
2023-04-18T06:12:26.485Z,0.5241
2023-04-18T06:13:34.631Z,0.5123
2023-04-18T06:14:42.729Z,0.5054
2023-04-18T06:15:50.726Z,0.4994
2023-04-18T06:16:58.825Z,0.5144
2023-04-18T06:18:06.875Z,0.4952
2023-04-18T06:19:14.969Z,0.5286
2023-04-18T06:20:23.114Z,0.5283
2023-04-18T06:21:31.076Z,0.5364
2023-04-18T06:22:39.154Z,0.5269
2023-04-18T06:23:47.335Z,0.5311
2023-04-18T06:24:55.280Z,0.5289
2023-04-18T06:26:03.381Z,0.5137
2023-04-18T06:27:20.731Z,0.5247
2023-04-18T06:28:24.358Z,0.5328
2023-04-18T06:29:32.346Z,0.5312
2023-04-18T06:30:40.469Z,0.5242
2023-04-18T06:31:48.648Z,0.5274
2023-04-18T06:32:56.584Z,0.5155
2023-04-18T06:34:04.671Z,0.5353
2023-04-18T06:35:12.840Z,0.5242
2023-04-18T06:36:20.810Z,0.5256
2023-04-18T06:37:28.817Z,0.5173
2023-04-18T06:38:36.895Z,0.5214
2023-04-18T06:39:45.216Z,0.5085
2023-04-18T06:40:53.053Z,0.5322
2023-04-18T06:42:01.142Z,0.5258
2023-04-18T06:43:09.232Z,0.5259
2023-04-18T06:44:17.307Z,0.5277
2023-04-18T06:45:25.403Z,0.5275
2023-04-18T06:46:33.391Z,0.5306
2023-04-18T06:47:41.414Z,0.5276
2023-04-18T06:48:51.047Z,0.5554
2023-04-18T06:49:57.571Z,0.5270
2023-04-18T06:51:05.695Z,0.5098
2023-04-18T06:52:13.734Z,0.5048
2023-04-18T06:53:21.671Z,0.5432
2023-04-18T06:54:29.844Z,0.5416
2023-04-18T06:55:37.997Z,0.5240
2023-04-18T06:56:45.976Z,0.5222
2023-04-18T06:57:54.025Z,0.5226
2023-04-18T06:59:02.140Z,0.5111
2023-04-18T07:00:10.098Z,0.5325
2023-04-18T07:01:18.373Z,0.5451
2023-04-18T07:02:26.356Z,0.5451
2023-04-18T07:03:34.391Z,0.5233
2023-04-18T07:04:42.366Z,0.5511
2023-04-18T07:05:50.502Z,0.5251
2023-04-18T07:06:58.561Z,0.5395
2023-04-18T07:08:06.570Z,0.5191
2023-04-18T07:09:14.630Z,0.5181
2023-04-18T07:10:22.592Z,0.5426
2023-04-18T07:11:30.790Z,0.5480
2023-04-18T07:12:38.734Z,0.5379
2023-04-18T07:13:46.785Z,0.5665
2023-04-18T07:14:54.907Z,0.5371
2023-04-18T07:16:02.953Z,0.5108
2023-04-18T07:17:11.204Z,0.5394
2023-04-18T07:18:30.262Z,0.5461
2023-04-18T07:19:32.054Z,0.5652
2023-04-18T07:20:40.068Z,0.5477
2023-04-18T07:21:48.204Z,0.5433
2023-04-18T07:22:56.246Z,0.5467
2023-04-18T07:24:04.264Z,0.5435
2023-04-18T07:25:12.222Z,0.5271
2023-04-18T07:26:20.379Z,0.5426
2023-04-18T07:27:28.463Z,0.5141
2023-04-18T07:28:36.532Z,0.5585
2023-04-18T07:29:44.570Z,0.5414
2023-04-18T07:30:52.583Z,0.5282
2023-04-18T07:32:00.687Z,0.5328
2023-04-18T07:33:08.814Z,0.5530
2023-04-18T07:34:16.836Z,0.5437
2023-04-18T07:35:24.856Z,0.5352
2023-04-18T07:36:32.860Z,0.5510
2023-04-18T07:37:41.115Z,0.5615
2023-04-18T07:38:49.065Z,0.5482
2023-04-18T07:39:57.143Z,0.5603
2023-04-18T07:41:05.180Z,0.5437
2023-04-18T07:42:13.190Z,0.5471
2023-04-18T07:43:21.312Z,0.5534
2023-04-18T07:44:29.382Z,0.5461
2023-04-18T07:45:37.494Z,0.5669
2023-04-18T07:46:45.604Z,0.5537
2023-04-18T07:47:53.557Z,0.5363
2023-04-18T07:49:01.646Z,0.5460
2023-04-18T07:50:09.704Z,0.5355
2023-04-18T07:51:17.730Z,0.5429
2023-04-18T07:52:25.840Z,0.5281
2023-04-18T07:53:33.820Z,0.5455
2023-04-18T07:54:41.923Z,0.5679
2023-04-18T07:55:50.330Z,0.5651
2023-04-18T07:56:58.169Z,0.5753
2023-04-18T07:58:06.148Z,0.5471
2023-04-18T07:59:14.325Z,0.5376
2023-04-18T08:00:22.183Z,0.5560
2023-04-18T08:01:30.313Z,0.5706
2023-04-18T08:02:38.572Z,0.5655
2023-04-18T08:03:46.577Z,0.5558
2023-04-18T08:04:54.980Z,0.5485
2023-04-18T08:06:02.585Z,0.5531
2023-04-18T08:07:10.676Z,0.5532
2023-04-18T08:08:18.853Z,0.5409
2023-04-18T08:09:26.729Z,0.5840
2023-04-18T08:10:34.720Z,0.5684
2023-04-18T08:11:42.867Z,0.5488
2023-04-18T08:12:50.942Z,0.5667
2023-04-18T08:13:59.036Z,0.5448
2023-04-18T08:15:07.076Z,0.5538
2023-04-18T08:16:17.359Z,0.5628
2023-04-18T08:17:23.207Z,0.5481
2023-04-18T08:18:31.248Z,0.5547
2023-04-18T08:19:39.205Z,0.5373
2023-04-18T08:20:47.517Z,0.5331
2023-04-18T08:21:55.442Z,0.5432
2023-04-18T08:23:08.642Z,0.5678
2023-04-18T08:24:16.376Z,0.5655
2023-04-18T08:25:24.515Z,0.5511
2023-04-18T08:26:32.554Z,0.5608
2023-04-18T08:27:40.678Z,0.5494
2023-04-18T08:28:48.554Z,0.5574
2023-04-18T08:29:56.810Z,0.5762
2023-04-18T08:31:04.743Z,0.5760
2023-04-18T08:32:12.901Z,0.5723
2023-04-18T08:33:20.901Z,0.5662
2023-04-18T08:34:28.935Z,0.5561
2023-04-18T08:35:36.957Z,0.5457
2023-04-18T08:36:45.046Z,0.5805
2023-04-18T08:37:53.019Z,0.5556
2023-04-18T08:39:01.203Z,0.5707
2023-04-18T08:40:09.163Z,0.5641
2023-04-18T08:41:17.415Z,0.5521
2023-04-18T08:42:25.396Z,0.5615
2023-04-18T08:43:33.326Z,0.5688
2023-04-18T08:44:41.475Z,0.5679
2023-04-18T08:45:49.434Z,0.5463
2023-04-18T08:46:57.640Z,0.5271
2023-04-18T08:48:05.586Z,0.5385
2023-04-18T08:49:13.798Z,0.5521
2023-04-18T08:50:21.823Z,0.5642
2023-04-18T08:51:29.770Z,0.5603
2023-04-18T08:52:38.020Z,0.5657
2023-04-18T08:53:46.030Z,0.5560
2023-04-18T08:54:53.969Z,0.5668
2023-04-18T08:56:02.022Z,0.5387
2023-04-18T08:57:10.029Z,0.5573
2023-04-18T08:58:18.087Z,0.5626
2023-04-18T08:59:26.185Z,0.5644
2023-04-18T09:00:34.160Z,0.5492
2023-04-18T09:01:42.313Z,0.5472
2023-04-18T09:02:50.437Z,0.5519
2023-04-18T09:03:58.504Z,0.5467
2023-04-18T09:05:06.466Z,0.5415
2023-04-18T09:06:14.442Z,0.5705
2023-04-18T09:07:22.613Z,0.5630
2023-04-18T09:08:30.747Z,0.5390
2023-04-18T09:09:38.690Z,0.5546
2023-04-18T09:10:46.913Z,0.5293
2023-04-18T09:11:54.716Z,0.5642
2023-04-18T09:13:02.890Z,0.5498
2023-04-18T09:14:11.240Z,0.5395
2023-04-18T09:15:19.003Z,0.5270
2023-04-18T09:16:27.125Z,0.5380
2023-04-18T09:17:35.118Z,0.5535
2023-04-18T09:18:43.228Z,0.5426
2023-04-18T09:19:51.348Z,0.5354
2023-04-18T09:20:59.440Z,0.5487
2023-04-18T09:22:07.397Z,0.5674
2023-04-18T09:23:15.399Z,0.5490
2023-04-18T09:24:23.688Z,0.5588
2023-04-18T09:25:31.717Z,0.5729
2023-04-18T09:26:39.623Z,0.5488
2023-04-18T09:27:47.718Z,0.5543
2023-04-18T09:28:55.674Z,0.5560
2023-04-18T09:30:03.876Z,0.5488
2023-04-18T09:31:12.188Z,0.5521
2023-04-18T09:32:19.992Z,0.5569
2023-04-18T09:33:28.117Z,0.5697
2023-04-18T09:34:35.965Z,0.5422
2023-04-18T09:35:44.177Z,0.5366
2023-04-18T09:36:52.292Z,0.5475
2023-04-18T09:38:00.349Z,0.5487
2023-04-18T09:39:08.297Z,0.5425
2023-04-18T09:40:16.264Z,0.5391
2023-04-18T09:41:24.403Z,0.5331
2023-04-18T09:42:32.486Z,0.5293
2023-04-18T09:43:40.404Z,0.5777
2023-04-18T09:44:48.486Z,0.5769
2023-04-18T09:45:56.617Z,0.5410
2023-04-18T09:47:04.715Z,0.5417
2023-04-18T09:48:12.781Z,0.5532
2023-04-18T09:49:20.713Z,0.5641
2023-04-18T09:50:28.838Z,0.5352
2023-04-18T09:51:36.949Z,0.5568
2023-04-18T09:52:45.301Z,0.5340
2023-04-18T09:53:53.037Z,0.5686
2023-04-18T09:55:01.210Z,0.5695
2023-04-18T09:56:09.197Z,0.5340
2023-04-18T09:57:17.186Z,0.5405
2023-04-18T09:58:25.205Z,0.5729
2023-04-18T09:59:33.191Z,0.5654
2023-04-18T10:00:41.376Z,0.5529
2023-04-18T10:01:49.482Z,0.5514
2023-04-18T10:02:57.502Z,0.5409
2023-04-18T10:04:05.552Z,0.5406
2023-04-18T10:05:13.803Z,0.5541
2023-04-18T10:06:21.559Z,0.5413
2023-04-18T10:07:29.702Z,0.5290
2023-04-18T10:08:37.762Z,0.5226
2023-04-18T10:09:45.781Z,0.5469
2023-04-18T10:10:53.917Z,0.5748
2023-04-18T10:12:02.073Z,0.5608
2023-04-18T10:13:09.995Z,0.5536
2023-04-18T10:14:18.259Z,0.5395
2023-04-18T10:15:26.047Z,0.5498
2023-04-18T10:16:35.654Z,0.5470
2023-04-18T10:17:52.551Z,0.5410
2023-04-18T10:18:55.157Z,0.5362
2023-04-18T10:20:03.180Z,0.5254
2023-04-18T10:21:11.186Z,0.5128
2023-04-18T10:22:19.348Z,0.5295
2023-04-18T10:23:28.174Z,0.5585
2023-04-18T10:24:35.344Z,0.5511
2023-04-18T10:25:43.475Z,0.5365
2023-04-18T10:26:51.447Z,0.5352
2023-04-18T10:27:59.622Z,0.5230
2023-04-18T10:29:07.644Z,0.5461
2023-04-18T10:30:15.632Z,0.5325
2023-04-18T10:31:23.864Z,0.5531
2023-04-18T10:32:31.801Z,0.5452
2023-04-18T10:33:42.442Z,0.5380
2023-04-18T10:34:52.807Z,0.5421
2023-04-18T10:36:01.037Z,0.5167
2023-04-18T10:37:08.938Z,0.5261
2023-04-18T10:38:17.006Z,0.5725
2023-04-18T10:39:25.059Z,0.5746
2023-04-18T10:40:33.078Z,0.5854
2023-04-18T10:41:41.304Z,0.5703
2023-04-18T10:42:49.217Z,0.5313
2023-04-18T10:43:57.239Z,0.5377
2023-04-18T10:45:05.605Z,0.5498
2023-04-18T10:46:24.270Z,0.5758
2023-04-18T10:47:26.331Z,0.5567
2023-04-18T10:48:38.459Z,0.5423
2023-04-18T10:49:47.384Z,0.5690
2023-04-18T10:50:55.240Z,0.5440
2023-04-18T10:52:03.362Z,0.5361
2023-04-18T10:53:11.407Z,0.5628
2023-04-18T10:54:19.545Z,0.5370
2023-04-18T10:55:27.592Z,0.5464
2023-04-18T10:56:35.578Z,0.5257
2023-04-18T10:57:43.696Z,0.5391
2023-04-18T10:58:51.741Z,0.5332
2023-04-18T10:59:59.693Z,0.5147
2023-04-18T11:01:07.963Z,0.5194
2023-04-18T11:02:15.786Z,0.5275
2023-04-18T11:03:23.986Z,0.5250
2023-04-18T11:04:32.011Z,0.5151
2023-04-18T11:05:40.063Z,0.5174
2023-04-18T11:06:48.130Z,0.5296
2023-04-18T11:07:56.090Z,0.5206
2023-04-18T11:09:04.350Z,0.5319
2023-04-18T11:10:12.335Z,0.5407
2023-04-18T11:11:20.368Z,0.5234
2023-04-18T11:12:28.477Z,0.5304
2023-04-18T11:13:36.341Z,0.5183
2023-04-18T11:14:44.497Z,0.5373
2023-04-18T11:15:52.645Z,0.5273
2023-04-18T11:17:00.575Z,0.5285
2023-04-18T11:18:08.718Z,0.5408
2023-04-18T11:19:16.920Z,0.5379
2023-04-18T11:20:24.772Z,0.5593
2023-04-18T11:21:32.883Z,0.5596
2023-04-18T11:22:40.828Z,0.5368
2023-04-18T11:23:49.011Z,0.5379
2023-04-18T11:24:57.044Z,0.5451
2023-04-18T11:26:05.064Z,0.5324
2023-04-18T11:27:13.091Z,0.5335
2023-04-18T11:28:21.207Z,0.5434
2023-04-18T11:29:29.234Z,0.5291
2023-04-18T11:30:37.213Z,0.5284
2023-04-18T11:31:45.535Z,0.5207
2023-04-18T11:32:53.396Z,0.5325
2023-04-18T11:34:01.352Z,0.5434
2023-04-18T11:35:09.544Z,0.5719
2023-04-18T11:36:17.570Z,0.5635
2023-04-18T11:37:25.626Z,0.5578
2023-04-18T11:38:33.636Z,0.5517
2023-04-18T11:39:41.682Z,0.5294
2023-04-18T11:40:49.920Z,0.5272
2023-04-18T11:41:57.737Z,0.5346
2023-04-18T11:43:05.857Z,0.5359
2023-04-18T11:44:13.954Z,0.5525
2023-04-18T11:45:22.076Z,0.5327
2023-04-18T11:46:30.184Z,0.5227
2023-04-18T11:47:38.199Z,0.5286
2023-04-18T11:48:46.070Z,0.5260
2023-04-18T11:49:56.500Z,0.5314
2023-04-18T11:51:07.365Z,0.5321
2023-04-18T11:52:15.207Z,0.5243
2023-04-18T11:53:23.154Z,0.5192
2023-04-18T11:54:31.266Z,0.5103
2023-04-18T11:55:39.342Z,0.5208
2023-04-18T11:56:47.372Z,0.5205
2023-04-18T11:57:55.543Z,0.5237
2023-04-18T11:59:03.630Z,0.5294
2023-04-18T12:00:11.519Z,0.5280
2023-04-18T12:01:19.720Z,0.5405
2023-04-18T12:02:27.857Z,0.5406
2023-04-18T12:03:35.950Z,0.5400
2023-04-18T12:04:44.088Z,0.5123
2023-04-18T12:05:51.993Z,0.5308
2023-04-18T12:06:59.930Z,0.5222
2023-04-18T12:08:08.164Z,0.5251
2023-04-18T12:09:15.970Z,0.5382
2023-04-18T12:10:24.074Z,0.5270
2023-04-18T12:11:32.182Z,0.5157
2023-04-18T12:12:40.202Z,0.5259
2023-04-18T12:13:48.277Z,0.5161
2023-04-18T12:14:56.329Z,0.5228
2023-04-18T12:16:04.389Z,0.5121
2023-04-18T12:17:12.511Z,0.5032
2023-04-18T12:18:20.483Z,0.5129
2023-04-18T12:19:28.613Z,0.5292
2023-04-18T12:20:36.601Z,0.5268
2023-04-18T12:21:44.631Z,0.5183
2023-04-18T12:22:52.651Z,0.5027
2023-04-18T12:24:00.758Z,0.5123
2023-04-18T12:25:08.883Z,0.5120
2023-04-18T12:26:16.835Z,0.5141
2023-04-18T12:27:24.953Z,0.5206
2023-04-18T12:28:33.031Z,0.5202
2023-04-18T12:29:41.018Z,0.5037
2023-04-18T12:30:49.137Z,0.5022
2023-04-18T12:31:57.187Z,0.5111
2023-04-18T12:33:05.265Z,0.5052
2023-04-18T12:34:13.433Z,0.4993
2023-04-18T12:35:21.250Z,0.5010
2023-04-18T12:36:29.423Z,0.5083
2023-04-18T12:37:37.526Z,0.5154
2023-04-18T12:38:45.481Z,0.4881
2023-04-18T12:39:53.601Z,0.5339
2023-04-18T12:41:01.617Z,0.5129
2023-04-18T12:42:09.697Z,0.4851
2023-04-18T12:43:17.659Z,0.5032
2023-04-18T12:44:25.758Z,0.4953
2023-04-18T12:45:33.735Z,0.4878
2023-04-18T12:46:41.869Z,0.4814
2023-04-18T12:47:50.016Z,0.4867
2023-04-18T12:48:57.973Z,0.4826
2023-04-18T12:50:06.103Z,0.4715
2023-04-18T12:51:14.093Z,0.4863
2023-04-18T12:52:22.071Z,0.5083
2023-04-18T12:53:30.277Z,0.4936
2023-04-18T12:54:38.286Z,0.5146
2023-04-18T12:55:46.321Z,0.5160
2023-04-18T12:56:54.409Z,0.4997
2023-04-18T12:58:02.572Z,0.4822
2023-04-18T12:59:10.565Z,0.4889
2023-04-18T13:00:18.504Z,0.4967
2023-04-18T13:01:26.766Z,0.4946
2023-04-18T13:02:34.845Z,0.4798
2023-04-18T13:03:42.770Z,0.4901
2023-04-18T13:04:50.953Z,0.5073
2023-04-18T13:05:58.794Z,0.5184
2023-04-18T13:07:06.920Z,0.5104
2023-04-18T13:08:17.677Z,0.5169
2023-04-18T13:09:27.918Z,0.4992
2023-04-18T13:10:36.163Z,0.4979
2023-04-18T13:11:43.958Z,0.4985
2023-04-18T13:12:52.040Z,0.5081
2023-04-18T13:14:00.168Z,0.4890
2023-04-18T13:15:08.176Z,0.4769
2023-04-18T13:16:16.294Z,0.4651
2023-04-18T13:17:24.289Z,0.4686
2023-04-18T13:18:32.294Z,0.4851
2023-04-18T13:19:40.463Z,0.5017
2023-04-18T13:20:48.544Z,0.5043
2023-04-18T13:21:56.688Z,0.5005
2023-04-18T13:23:04.694Z,0.4828
2023-04-18T13:24:12.621Z,0.4811
2023-04-18T13:25:20.726Z,0.4910
2023-04-18T13:26:28.836Z,0.4968
2023-04-18T13:27:37.358Z,0.5021
2023-04-18T13:28:44.891Z,0.4830
2023-04-18T13:29:52.979Z,0.4834
2023-04-18T13:31:01.200Z,0.4770
2023-04-18T13:32:09.301Z,0.4985
2023-04-18T13:33:17.251Z,0.4809
2023-04-18T13:34:25.399Z,0.4895
2023-04-18T13:35:33.325Z,0.4920
2023-04-18T13:36:41.402Z,0.4923
2023-04-18T13:37:49.552Z,0.4916
2023-04-18T13:38:57.523Z,0.4797
2023-04-18T13:40:05.589Z,0.4704
2023-04-18T13:41:13.911Z,0.4654
2023-04-18T13:42:21.701Z,0.4673
2023-04-18T13:43:29.789Z,0.4736
2023-04-18T13:44:37.765Z,0.4550
2023-04-18T13:45:46.067Z,0.4435
2023-04-18T13:46:53.867Z,0.4464
2023-04-18T13:48:02.050Z,0.4576
2023-04-18T13:49:10.125Z,0.4756
2023-04-18T13:50:18.147Z,0.4654
2023-04-18T13:51:26.205Z,0.4678
2023-04-18T13:52:34.233Z,0.4827
2023-04-18T13:53:42.291Z,0.4576
2023-04-18T13:54:50.402Z,0.4758
2023-04-18T13:55:58.399Z,0.4560
2023-04-18T13:57:06.616Z,0.4542
2023-04-18T13:58:14.488Z,0.4581
2023-04-18T13:59:22.539Z,0.4557
2023-04-18T14:00:30.720Z,0.4563
2023-04-18T14:01:38.642Z,0.4538
2023-04-18T14:02:46.882Z,0.4774
2023-04-18T14:03:55.057Z,0.4882
2023-04-18T14:05:03.019Z,0.4924
2023-04-18T14:06:11.007Z,0.4858
2023-04-18T14:07:19.093Z,0.4648
2023-04-18T14:08:27.308Z,0.4624
2023-04-18T14:09:35.136Z,0.4668